createdAt,value
2022-12-06T00:01:34.770Z,101091.73
2022-12-06T00:04:06.401Z,101088.80
2022-12-06T00:06:45.271Z,101087.16
2022-12-06T00:09:19.914Z,101086.29
2022-12-06T00:11:48.110Z,101083.81
2022-12-06T00:14:16.727Z,101078.33
2022-12-06T00:16:45.081Z,101079.06
2022-12-06T00:19:14.626Z,101076.08
2022-12-06T00:21:43.083Z,101069.89
2022-12-06T00:24:16.849Z,101073.38
2022-12-06T00:26:46.728Z,101067.44
2022-12-06T00:29:19.108Z,101065.41
2022-12-06T00:31:47.082Z,101062.08
2022-12-06T00:34:15.578Z,101059.73
2022-12-06T00:36:43.810Z,101065.92
2022-12-06T00:39:14.767Z,101064.17
2022-12-06T00:41:43.466Z,101061.91
2022-12-06T00:44:11.769Z,101060.38
2022-12-06T00:46:40.276Z,101050.16
2022-12-06T00:49:09.267Z,101052.78
2022-12-06T00:51:37.903Z,101050.22
2022-12-06T00:54:07.218Z,101050.02
2022-12-06T00:56:36.741Z,101044.81
2022-12-06T00:59:06.585Z,101046.90
2022-12-06T01:01:36.326Z,101045.52
2022-12-06T01:04:06.826Z,101046.33
2022-12-06T01:06:36.440Z,101044.93
2022-12-06T01:09:08.194Z,101049.26
2022-12-06T01:11:36.618Z,101048.36
2022-12-06T01:14:04.464Z,101051.77
2022-12-06T01:16:32.631Z,101050.92
2022-12-06T01:19:05.500Z,101052.14
2022-12-06T01:21:33.575Z,101048.48
2022-12-06T01:24:01.277Z,101051.94
2022-12-06T01:26:34.781Z,101056.98
2022-12-06T01:29:04.068Z,101058.11
2022-12-06T01:31:38.202Z,101060.02
2022-12-06T01:34:13.592Z,101058.20
2022-12-06T01:36:41.648Z,101053.70
2022-12-06T01:39:10.808Z,101057.71
2022-12-06T01:41:39.689Z,101061.48
2022-12-06T01:44:28.099Z,101060.07
2022-12-06T01:46:55.901Z,101053.64
2022-12-06T01:49:29.630Z,101051.33
2022-12-06T01:52:07.024Z,101048.86
2022-12-06T01:54:34.876Z,101048.89
2022-12-06T01:57:07.038Z,101047.32
2022-12-06T01:59:35.781Z,101042.94
2022-12-06T02:02:03.860Z,101034.84
2022-12-06T02:04:32.218Z,101032.63
2022-12-06T02:07:01.141Z,101027.05
2022-12-06T02:09:29.763Z,101024.86
2022-12-06T02:11:57.507Z,101019.20
2022-12-06T02:14:31.593Z,101015.06
2022-12-06T02:17:15.556Z,101013.89
2022-12-06T02:20:13.634Z,100992.21
2022-12-06T02:23:15.594Z,100982.62
2022-12-06T02:26:11.639Z,100976.70
2022-12-06T02:29:08.568Z,100977.96
2022-12-06T02:31:42.680Z,100977.82
2022-12-06T02:34:18.133Z,100974.00
2022-12-06T02:36:55.711Z,100973.81
2022-12-06T02:39:35.054Z,100974.04
2022-12-06T02:42:08.434Z,100966.71
2022-12-06T02:44:41.238Z,100960.63
2022-12-06T02:47:11.860Z,100958.41
2022-12-06T02:49:46.680Z,100948.79
2022-12-06T02:52:15.781Z,100941.09
2022-12-06T02:54:46.278Z,100943.91
2022-12-06T02:57:14.185Z,100941.27
2022-12-06T02:59:51.726Z,100942.96
2022-12-06T03:02:22.137Z,100948.98
2022-12-06T03:05:18.238Z,100950.26
2022-12-06T03:07:48.120Z,100952.02
2022-12-06T03:10:40.896Z,100957.36
2022-12-06T03:13:18.053Z,100963.67
2022-12-06T03:15:59.211Z,100959.62
2022-12-06T03:18:46.141Z,100958.70
2022-12-06T03:21:21.569Z,100951.60
2022-12-06T03:23:51.663Z,100951.22
2022-12-06T03:26:24.070Z,100952.58
2022-12-06T03:28:56.026Z,100950.73
2022-12-06T03:31:25.662Z,100947.48
2022-12-06T03:33:59.622Z,100949.98
2022-12-06T03:36:29.975Z,100941.13
2022-12-06T03:39:01.037Z,100935.88
2022-12-06T03:41:34.025Z,100935.73
2022-12-06T03:44:01.929Z,100930.52
2022-12-06T03:46:44.448Z,100929.58
2022-12-06T03:49:17.441Z,100930.84
2022-12-06T03:51:46.190Z,100928.55
2022-12-06T03:54:14.050Z,100927.92
2022-12-06T03:56:41.969Z,100929.42
2022-12-06T03:59:11.180Z,100927.79
2022-12-06T04:01:39.426Z,100923.30
2022-12-06T04:04:07.680Z,100923.08
2022-12-06T04:06:35.684Z,100919.08
2022-12-06T04:09:22.245Z,100916.32
2022-12-06T04:11:50.730Z,100917.67
2022-12-06T04:14:18.763Z,100916.89
2022-12-06T04:17:16.116Z,100924.69
2022-12-06T04:19:48.076Z,100924.73
2022-12-06T04:22:37.074Z,100921.10
2022-12-06T04:25:05.140Z,100919.02
2022-12-06T04:27:51.572Z,100911.48
2022-12-06T04:30:38.184Z,100912.57
2022-12-06T04:33:24.727Z,100910.14
2022-12-06T04:36:15.099Z,100909.23
2022-12-06T04:38:43.290Z,100916.04
2022-12-06T04:41:12.205Z,100919.08
2022-12-06T04:43:42.691Z,100914.98
2022-12-06T04:46:13.132Z,100906.41
2022-12-06T04:48:41.913Z,100902.43
2022-12-06T04:51:13.163Z,100901.14
2022-12-06T04:53:41.258Z,100905.30
2022-12-06T04:56:09.343Z,100903.92
2022-12-06T04:58:37.225Z,100902.14
2022-12-06T05:01:05.347Z,100908.73
2022-12-06T05:03:33.394Z,100905.45
2022-12-06T05:06:01.390Z,100901.61
2022-12-06T05:08:29.123Z,100896.95
2022-12-06T05:10:57.223Z,100898.52
2022-12-06T05:13:25.299Z,100899.55
2022-12-06T05:15:55.431Z,100903.77
2022-12-06T05:18:25.049Z,100897.89
2022-12-06T05:21:02.566Z,100895.90
2022-12-06T05:23:30.406Z,100894.54
2022-12-06T05:26:03.774Z,100895.61
2022-12-06T05:28:31.849Z,100899.11
2022-12-06T05:30:59.713Z,100892.04
2022-12-06T05:33:28.350Z,100894.44
2022-12-06T05:35:56.222Z,100894.15
2022-12-06T05:38:24.478Z,100899.14
2022-12-06T05:40:52.350Z,100898.16
2022-12-06T05:43:20.120Z,100900.11
2022-12-06T05:45:52.753Z,100901.72
2022-12-06T05:48:20.637Z,100896.61
2022-12-06T05:50:50.051Z,100891.58
2022-12-06T05:53:18.071Z,100890.20
2022-12-06T05:55:46.608Z,100890.55
2022-12-06T05:58:17.334Z,100881.42
2022-12-06T06:00:49.780Z,100880.89
2022-12-06T06:03:18.215Z,100881.84
2022-12-06T06:05:50.459Z,100874.98
2022-12-06T06:08:18.652Z,100871.66
2022-12-06T06:10:46.689Z,100874.67
2022-12-06T06:13:14.675Z,100880.05
2022-12-06T06:15:42.545Z,100882.63
2022-12-06T06:18:10.454Z,100886.50
2022-12-06T06:20:38.291Z,100886.40
2022-12-06T06:23:06.356Z,100888.86
2022-12-06T06:25:34.125Z,100888.00
2022-12-06T06:28:01.872Z,100882.61
2022-12-06T06:30:29.748Z,100882.57
2022-12-06T06:32:57.516Z,100877.96
2022-12-06T06:35:25.438Z,100875.86
2022-12-06T06:37:53.271Z,100871.46
2022-12-06T06:40:22.075Z,100861.09
2022-12-06T06:42:50.357Z,100855.23
2022-12-06T06:45:19.876Z,100852.77
2022-12-06T06:48:00.530Z,100865.77
2022-12-06T06:50:28.526Z,100864.20
2022-12-06T06:53:03.253Z,100857.74
2022-12-06T06:55:31.643Z,100856.52
2022-12-06T06:57:59.878Z,100860.78
2022-12-06T07:00:28.427Z,100861.85
2022-12-06T07:02:59.640Z,100860.89
2022-12-06T07:05:27.815Z,100857.85
2022-12-06T07:07:57.931Z,100859.23
2022-12-06T07:10:27.314Z,100865.52
2022-12-06T07:12:55.392Z,100861.41
2022-12-06T07:15:23.213Z,100870.72
2022-12-06T07:17:51.635Z,100870.34
2022-12-06T07:20:19.845Z,100871.42
2022-12-06T07:22:47.628Z,100876.98
2022-12-06T07:25:16.184Z,100876.23
2022-12-06T07:27:43.978Z,100874.03
2022-12-06T07:30:16.897Z,100876.55
2022-12-06T07:32:45.144Z,100882.79
2022-12-06T07:35:12.950Z,100882.06
2022-12-06T07:37:44.519Z,100879.82
2022-12-06T07:40:14.380Z,100880.60
2022-12-06T07:43:01.022Z,100880.20
2022-12-06T07:45:29.594Z,100877.68
2022-12-06T07:47:57.905Z,100879.42
2022-12-06T07:50:25.961Z,100881.42
2022-12-06T07:52:53.936Z,100881.76
2022-12-06T07:55:21.752Z,100871.83
2022-12-06T07:57:50.750Z,100866.75
2022-12-06T08:00:19.630Z,100864.55
2022-12-06T08:02:47.663Z,100863.23
2022-12-06T08:05:15.897Z,100865.97
2022-12-06T08:07:44.356Z,100867.95
2022-12-06T08:10:12.418Z,100870.54
2022-12-06T08:12:40.322Z,100866.15
2022-12-06T08:15:13.072Z,100862.98
2022-12-06T08:17:42.193Z,100861.45
2022-12-06T08:20:10.990Z,100867.27
2022-12-06T08:22:38.824Z,100863.88
2022-12-06T08:25:07.449Z,100864.35
2022-12-06T08:27:35.295Z,100865.23
2022-12-06T08:30:03.809Z,100864.98
2022-12-06T08:32:32.421Z,100860.88
2022-12-06T08:35:00.280Z,100857.30
2022-12-06T08:37:28.944Z,100856.79
2022-12-06T08:39:57.187Z,100860.64
2022-12-06T08:42:25.528Z,100854.51
2022-12-06T08:44:54.545Z,100854.50
2022-12-06T08:47:22.430Z,100849.06
2022-12-06T08:49:51.668Z,100845.61
2022-12-06T08:52:19.616Z,100849.91
2022-12-06T08:54:48.130Z,100850.04
2022-12-06T08:57:16.195Z,100850.43
2022-12-06T08:59:44.162Z,100849.83
2022-12-06T09:02:12.733Z,100848.75
2022-12-06T09:04:40.846Z,100850.17
2022-12-06T09:07:11.898Z,100854.04
2022-12-06T09:09:41.021Z,100853.78
2022-12-06T09:12:08.936Z,100856.10
2022-12-06T09:14:37.380Z,100853.71
2022-12-06T09:17:06.519Z,100849.84
2022-12-06T09:19:34.944Z,100847.64
2022-12-06T09:22:02.901Z,100843.05
2022-12-06T09:24:31.051Z,100840.31
2022-12-06T09:26:59.079Z,100842.00
2022-12-06T09:29:27.290Z,100840.06
2022-12-06T09:31:55.886Z,100842.67
2022-12-06T09:34:24.074Z,100838.39
2022-12-06T09:37:03.230Z,100836.84
2022-12-06T09:39:37.735Z,100834.11
2022-12-06T09:42:12.353Z,100835.77
2022-12-06T09:44:46.710Z,100834.41
2022-12-06T09:47:17.731Z,100825.88
2022-12-06T09:50:01.116Z,100822.95
2022-12-06T09:52:47.244Z,100816.73
2022-12-06T09:55:36.768Z,100812.12
2022-12-06T09:58:42.407Z,100808.95
2022-12-06T10:01:30.672Z,100802.01
2022-12-06T10:04:43.689Z,100802.36
2022-12-06T10:07:32.595Z,100797.96
2022-12-06T10:10:03.992Z,100795.65
2022-12-06T10:12:58.165Z,100797.69
2022-12-06T10:15:51.789Z,100795.20
2022-12-06T10:18:31.626Z,100793.48
2022-12-06T10:21:16.560Z,100796.26
2022-12-06T10:24:01.824Z,100795.23
2022-12-06T10:26:52.003Z,100795.19
2022-12-06T10:29:29.497Z,100790.23
2022-12-06T10:32:15.050Z,100788.20
2022-12-06T10:35:18.436Z,100786.91
2022-12-06T10:38:34.039Z,100787.41
2022-12-06T10:44:32.387Z,100774.02
2022-12-06T10:47:12.713Z,100770.20
2022-12-06T10:49:54.935Z,100769.27
2022-12-06T10:52:45.180Z,100768.48
2022-12-06T10:55:26.718Z,100768.98
2022-12-06T10:58:18.682Z,100771.64
2022-12-06T11:01:06.023Z,100770.82
2022-12-06T11:03:49.910Z,100774.64
2022-12-06T11:06:33.891Z,100771.18
2022-12-06T11:09:38.887Z,100767.40
2022-12-06T11:12:31.634Z,100765.34
2022-12-06T11:15:35.968Z,100769.00
2022-12-06T11:18:10.829Z,100761.20
2022-12-06T11:21:00.053Z,100756.91
2022-12-06T11:23:39.660Z,100758.20
2022-12-06T11:26:13.353Z,100758.77
2022-12-06T11:28:43.485Z,100761.45
2022-12-06T11:31:26.358Z,100765.29
2022-12-06T11:33:54.255Z,100764.48
2022-12-06T11:36:23.730Z,100763.64
2022-12-06T11:38:50.699Z,100763.86
2022-12-06T11:41:23.678Z,100759.23
2022-12-06T11:43:51.773Z,100752.98
2022-12-06T11:46:18.431Z,100753.08
2022-12-06T11:48:47.001Z,100744.58
2022-12-06T11:51:18.458Z,100741.22
2022-12-06T11:54:03.196Z,100736.45
2022-12-06T11:56:34.130Z,100734.27
2022-12-06T11:59:30.125Z,100726.61
2022-12-06T12:02:00.243Z,100718.66
2022-12-06T12:04:38.204Z,100715.90
2022-12-06T12:07:11.120Z,100713.61
2022-12-06T12:09:57.755Z,100712.05
2022-12-06T12:13:05.460Z,100708.06
2022-12-06T12:15:33.178Z,100711.60
2022-12-06T12:18:01.128Z,100714.48
2022-12-06T12:20:31.101Z,100711.02
2022-12-06T12:23:06.650Z,100708.80
2022-12-06T12:25:35.916Z,100706.70
2022-12-06T12:28:23.877Z,100706.44
2022-12-06T12:30:56.528Z,100702.30
2022-12-06T12:33:27.970Z,100693.22
2022-12-06T12:36:16.523Z,100692.52
2022-12-06T12:38:52.782Z,100690.90
2022-12-06T12:41:30.612Z,100689.45
2022-12-06T12:44:37.044Z,100689.78
2022-12-06T12:46:58.253Z,100676.39
2022-12-06T12:49:34.044Z,100670.02
2022-12-06T12:52:03.852Z,100675.89
2022-12-06T12:54:33.745Z,100672.40
2022-12-06T12:57:06.664Z,100672.09
2022-12-06T12:59:39.488Z,100667.34
2022-12-06T13:02:26.898Z,100664.19
2022-12-06T13:07:51.894Z,100667.32
2022-12-06T13:10:26.999Z,100669.01
2022-12-06T13:13:00.490Z,100670.91
2022-12-06T13:15:46.526Z,100673.30
2022-12-06T13:18:37.855Z,100675.91
2022-12-06T13:21:20.197Z,100679.04
2022-12-06T13:23:49.547Z,100681.45
2022-12-06T13:26:26.084Z,100681.00
2022-12-06T13:28:56.848Z,100682.29
2022-12-06T13:31:29.104Z,100682.64
2022-12-06T13:34:03.991Z,100686.95
2022-12-06T13:36:34.340Z,100691.45
2022-12-06T13:39:32.341Z,100693.11
2022-12-06T13:42:17.436Z,100697.23
2022-12-06T13:44:47.174Z,100697.65
2022-12-06T13:47:26.152Z,100695.22
2022-12-06T13:49:59.742Z,100694.25
2022-12-06T13:52:42.031Z,100691.91
2022-12-06T13:55:24.002Z,100691.27
2022-12-06T13:57:58.965Z,100689.50
2022-12-06T14:00:32.269Z,100684.22
2022-12-06T14:03:04.143Z,100680.73
2022-12-06T14:06:14.681Z,100681.34
2022-12-06T14:08:50.932Z,100681.95
2022-12-06T14:11:44.896Z,100681.69
2022-12-06T14:14:18.119Z,100678.52
2022-12-06T14:16:52.126Z,100670.02
2022-12-06T14:19:22.170Z,100666.98
2022-12-06T14:21:57.911Z,100666.02
2022-12-06T14:24:30.542Z,100665.13
2022-12-06T14:27:05.112Z,100664.91
2022-12-06T14:29:32.452Z,100660.79
2022-12-06T14:31:59.973Z,100656.90
2022-12-06T14:34:30.297Z,100658.84
2022-12-06T14:36:59.320Z,100659.95
2022-12-06T14:39:28.754Z,100659.95
2022-12-06T14:42:21.411Z,100663.33
2022-12-06T14:45:01.757Z,100662.39
2022-12-06T14:47:29.377Z,100658.52
2022-12-06T14:50:19.448Z,100658.90
2022-12-06T14:53:16.308Z,100659.98
2022-12-06T14:55:57.104Z,100658.16
2022-12-06T14:58:28.334Z,100656.98
2022-12-06T15:01:00.312Z,100656.25
2022-12-06T15:03:31.659Z,100658.00
2022-12-06T15:06:16.876Z,100654.30
2022-12-06T15:08:55.097Z,100652.83
2022-12-06T15:11:47.648Z,100655.02
2022-12-06T15:14:19.830Z,100652.31
2022-12-06T15:17:09.707Z,100649.83
2022-12-06T15:19:43.790Z,100646.09
2022-12-06T15:22:24.996Z,100644.34
2022-12-06T15:24:55.893Z,100648.86
2022-12-06T15:27:26.393Z,100648.83
2022-12-06T15:29:54.717Z,100651.92
2022-12-06T15:32:24.827Z,100649.83
2022-12-06T15:34:52.714Z,100645.23
2022-12-06T15:40:13.745Z,100636.73
2022-12-06T15:42:40.461Z,100631.92
2022-12-06T15:45:14.739Z,100635.64
2022-12-06T15:47:41.459Z,100638.15
2022-12-06T15:50:18.036Z,100637.52
2022-12-06T15:52:46.799Z,100633.36
2022-12-06T15:55:19.305Z,100628.35
2022-12-06T15:57:50.279Z,100628.24
2022-12-06T16:00:20.254Z,100623.58
2022-12-06T16:02:49.023Z,100620.20
2022-12-06T16:05:18.065Z,100622.66
2022-12-06T16:07:44.990Z,100616.21
2022-12-06T16:10:12.147Z,100620.93
2022-12-06T16:12:57.938Z,100619.80
2022-12-06T16:15:24.492Z,100621.14
2022-12-06T16:17:51.908Z,100621.33
2022-12-06T16:20:30.502Z,100625.73
2022-12-06T16:23:56.536Z,100623.90
2022-12-06T16:26:20.177Z,100618.02
2022-12-06T16:28:46.904Z,100619.52
2022-12-06T16:31:13.947Z,100617.63
2022-12-06T16:33:40.965Z,100615.80
2022-12-06T16:36:28.105Z,100618.52
2022-12-06T16:38:56.927Z,100615.77
2022-12-06T16:41:31.632Z,100617.13
2022-12-06T16:44:00.223Z,100614.06
2022-12-06T16:46:31.586Z,100612.85
2022-12-06T16:49:16.044Z,100606.77
2022-12-06T16:51:52.055Z,100615.20
2022-12-06T16:54:21.716Z,100613.53
2022-12-06T16:56:49.605Z,100612.00
2022-12-06T16:59:26.953Z,100611.76
2022-12-06T17:01:54.770Z,100612.08
2022-12-06T17:04:22.153Z,100615.59
2022-12-06T17:06:49.303Z,100620.67
2022-12-06T17:09:16.373Z,100619.36
2022-12-06T17:12:03.276Z,100619.23
2022-12-06T17:14:30.545Z,100619.31
2022-12-06T17:16:59.039Z,100623.43
2022-12-06T17:19:28.303Z,100620.09
2022-12-06T17:21:58.979Z,100617.10
2022-12-06T17:24:26.642Z,100617.20
2022-12-06T17:26:54.562Z,100623.11
2022-12-06T17:29:22.924Z,100619.29
2022-12-06T17:31:50.505Z,100617.48
2022-12-06T17:34:19.311Z,100619.74
2022-12-06T17:36:47.464Z,100622.27
2022-12-06T17:39:19.759Z,100622.29
2022-12-06T17:42:05.575Z,100618.10
2022-12-06T17:44:35.831Z,100614.65
2022-12-06T17:47:02.889Z,100616.69
2022-12-06T17:49:29.566Z,100620.39
2022-12-06T17:51:57.113Z,100614.36
2022-12-06T17:54:24.190Z,100615.88
2022-12-06T17:56:53.459Z,100614.98
2022-12-06T17:59:25.914Z,100617.77
2022-12-06T18:04:43.508Z,100618.98
2022-12-06T18:07:11.793Z,100618.70
2022-12-06T18:09:39.025Z,100616.11
2022-12-06T18:12:08.625Z,100614.02
2022-12-06T18:14:35.620Z,100610.56
2022-12-06T18:17:02.746Z,100612.22
2022-12-06T18:19:30.725Z,100611.33
2022-12-06T18:21:58.210Z,100610.27
2022-12-06T18:24:29.262Z,100608.98
2022-12-06T18:27:00.869Z,100611.07
2022-12-06T18:29:27.729Z,100605.80
2022-12-06T18:31:54.588Z,100604.44
2022-12-06T18:34:21.625Z,100602.80
2022-12-06T18:36:48.496Z,100601.27
2022-12-06T18:39:23.567Z,100602.40
2022-12-06T18:41:52.017Z,100596.55
2022-12-06T18:44:19.483Z,100596.27
2022-12-06T18:46:46.406Z,100599.96
2022-12-06T18:49:13.774Z,100600.14
2022-12-06T18:51:41.011Z,100601.89
2022-12-06T18:54:13.160Z,100602.90
2022-12-06T18:56:44.652Z,100601.66
2022-12-06T18:59:12.691Z,100603.80
2022-12-06T19:01:41.269Z,100604.29
2022-12-06T19:04:15.419Z,100602.41
2022-12-06T19:06:43.253Z,100606.70
2022-12-06T19:09:14.017Z,100601.84
2022-12-06T19:11:43.451Z,100603.08
2022-12-06T19:14:11.600Z,100603.54
2022-12-06T19:16:44.341Z,100600.94
2022-12-06T19:19:16.477Z,100600.57
2022-12-06T19:21:49.575Z,100605.08
2022-12-06T19:24:22.793Z,100598.42
2022-12-06T19:26:51.186Z,100600.14
2022-12-06T19:29:18.929Z,100598.38
2022-12-06T19:31:46.373Z,100597.72
2022-12-06T19:34:19.045Z,100598.39
2022-12-06T19:36:48.806Z,100599.92
2022-12-06T19:39:19.009Z,100599.02
2022-12-06T19:42:06.730Z,100594.20
2022-12-06T19:44:34.099Z,100591.98
2022-12-06T19:47:02.199Z,100591.54
2022-12-06T19:49:31.430Z,100583.23
2022-12-06T19:52:06.168Z,100582.88
2022-12-06T19:54:36.989Z,100584.08
2022-12-06T19:57:05.559Z,100584.30
2022-12-06T19:59:36.798Z,100582.76
2022-12-06T20:02:06.924Z,100579.48
2022-12-06T20:04:40.217Z,100575.77
2022-12-06T20:07:09.875Z,100572.56
2022-12-06T20:09:39.537Z,100570.81
2022-12-06T20:12:08.960Z,100566.81
2022-12-06T20:14:48.254Z,100563.93
2022-12-06T20:17:21.681Z,100564.95
2022-12-06T20:19:49.538Z,100561.08
2022-12-06T20:22:21.252Z,100559.19
2022-12-06T20:24:48.857Z,100555.70
2022-12-06T20:27:16.283Z,100553.03
2022-12-06T20:29:43.425Z,100552.02
2022-12-06T20:32:10.922Z,100550.66
2022-12-06T20:34:38.853Z,100548.71
2022-12-06T20:37:06.630Z,100546.75
2022-12-06T20:39:36.999Z,100545.20
2022-12-06T20:42:05.758Z,100543.63
2022-12-06T20:44:33.569Z,100540.44
2022-12-06T20:47:01.228Z,100541.69
2022-12-06T20:49:28.204Z,100541.77
2022-12-06T20:51:56.025Z,100539.77
2022-12-06T20:54:23.509Z,100541.41
2022-12-06T20:56:52.453Z,100541.77
2022-12-06T20:59:20.058Z,100542.37
2022-12-06T21:01:47.364Z,100535.36
2022-12-06T21:04:17.041Z,100529.91
2022-12-06T21:06:43.620Z,100526.02
2022-12-06T21:09:10.643Z,100523.00
2022-12-06T21:11:37.960Z,100522.14
2022-12-06T21:14:05.520Z,100522.71
2022-12-06T21:16:33.279Z,100521.27
2022-12-06T21:19:05.691Z,100522.13
2022-12-06T21:21:34.795Z,100527.69
2022-12-06T21:24:04.793Z,100524.45
2022-12-06T21:26:32.341Z,100522.15
2022-12-06T21:28:59.876Z,100522.38
2022-12-06T21:31:31.029Z,100521.98
2022-12-06T21:33:58.695Z,100525.95
2022-12-06T21:36:25.670Z,100529.67
2022-12-06T21:38:53.013Z,100530.27
2022-12-06T21:41:20.808Z,100532.88
2022-12-06T21:43:48.055Z,100529.09
2022-12-06T21:46:19.701Z,100526.63
2022-12-06T21:48:51.199Z,100524.48
2022-12-06T21:51:18.776Z,100523.04
2022-12-06T21:53:45.280Z,100525.79
2022-12-06T21:56:16.200Z,100520.55
2022-12-06T21:58:43.455Z,100522.60
2022-12-06T22:01:13.573Z,100522.27
2022-12-06T22:03:40.775Z,100516.52
2022-12-06T22:06:10.463Z,100512.65
2022-12-06T22:08:39.952Z,100515.92
2022-12-06T22:11:08.975Z,100513.78
2022-12-06T22:13:36.103Z,100513.88
2022-12-06T22:16:07.906Z,100515.20
2022-12-06T22:18:39.863Z,100509.25
2022-12-06T22:21:16.002Z,100506.16
2022-12-06T22:23:43.365Z,100503.95
2022-12-06T22:26:13.416Z,100501.16
2022-12-06T22:28:40.260Z,100500.55
2022-12-06T22:31:16.442Z,100496.88
2022-12-06T22:33:43.843Z,100492.01
2022-12-06T22:36:11.154Z,100492.67
2022-12-06T22:38:38.098Z,100493.52
2022-12-06T22:41:05.656Z,100486.91
2022-12-06T22:43:32.405Z,100491.77
2022-12-06T22:46:04.196Z,100487.36
2022-12-06T22:48:30.680Z,100486.97
2022-12-06T22:51:31.359Z,100485.45
2022-12-06T22:54:00.318Z,100484.59
2022-12-06T22:56:28.690Z,100482.91
2022-12-06T22:58:57.959Z,100481.44
2022-12-06T23:01:27.177Z,100476.32
2022-12-06T23:03:54.430Z,100475.69
2022-12-06T23:06:23.712Z,100474.58
2022-12-06T23:08:54.233Z,100476.86
2022-12-06T23:11:29.833Z,100475.07
2022-12-06T23:13:58.143Z,100475.33
2022-12-06T23:16:27.202Z,100474.45
2022-12-06T23:18:54.426Z,100471.44
2022-12-06T23:21:32.044Z,100469.78
2022-12-06T23:24:05.077Z,100469.76
2022-12-06T23:26:36.873Z,100472.36
2022-12-06T23:29:03.509Z,100473.55
2022-12-06T23:31:32.763Z,100473.82
2022-12-06T23:34:02.187Z,100469.54
2022-12-06T23:36:30.598Z,100465.76
2022-12-06T23:39:00.152Z,100469.31
2022-12-06T23:41:29.055Z,100462.09
2022-12-06T23:43:57.120Z,100468.81
2022-12-06T23:46:29.271Z,100466.29
2022-12-06T23:48:56.738Z,100466.40
2022-12-06T23:51:26.022Z,100465.18
2022-12-06T23:53:58.125Z,100466.17
2022-12-06T23:56:28.032Z,100464.55
2022-12-06T23:58:55.943Z,100467.55
